sensor_id;sensor_type;location;lat;lon;timestamp;pressure;altitude;pressure_sealevel;temperature;humidity
13709;BME280;54933;51.908;7.730;2022-07-19T00:00:00;101309.03;;;23.91;100.00
13709;BME280;54933;51.908;7.730;2022-07-19T00:02:27;101309.84;;;23.92;100.00
13709;BME280;54933;51.908;7.730;2022-07-19T00:04:53;101309.84;;;23.92;100.00
13709;BME280;54933;51.908;7.730;2022-07-19T00:07:18;101311.75;;;23.91;100.00
13709;BME280;54933;51.908;7.730;2022-07-19T00:09:43;101315.25;;;23.92;100.00
13709;BME280;54933;51.908;7.730;2022-07-19T00:12:09;101325.31;;;23.91;100.00
13709;BME280;54933;51.908;7.730;2022-07-19T00:14:36;101314.47;;;23.91;100.00
13709;BME280;54933;51.908;7.730;2022-07-19T00:17:01;101316.09;;;23.92;100.00
13709;BME280;54933;51.908;7.730;2022-07-19T00:19:26;101301.69;;;23.92;100.00
13709;BME280;54933;51.908;7.730;2022-07-19T00:21:51;101307.34;;;23.90;100.00
13709;BME280;54933;51.908;7.730;2022-07-19T00:24:17;101302.53;;;23.92;100.00
13709;BME280;54933;51.908;7.730;2022-07-19T00:26:42;101309.84;;;23.92;100.00
13709;BME280;54933;51.908;7.730;2022-07-19T00:29:07;101303.59;;;23.91;100.00
13709;BME280;54933;51.908;7.730;2022-07-19T00:31:33;101297.31;;;23.91;100.00
13709;BME280;54933;51.908;7.730;2022-07-19T00:33:58;101303.59;;;23.91;100.00
13709;BME280;54933;51.908;7.730;2022-07-19T00:36:23;101302.75;;;23.91;100.00
13709;BME280;54933;51.908;7.730;2022-07-19T00:38:49;101314.47;;;23.91;100.00
13709;BME280;54933;51.908;7.730;2022-07-19T00:41:14;101317.16;;;23.91;100.00
13709;BME280;54933;51.908;7.730;2022-07-19T00:43:40;101311.75;;;23.91;100.00
13709;BME280;54933;51.908;7.730;2022-07-19T00:46:15;101311.75;;;23.91;100.00
13709;BME280;54933;51.908;7.730;2022-07-19T00:48:41;101314.47;;;23.91;100.00
13709;BME280;54933;51.908;7.730;2022-07-19T00:51:08;101312.78;;;23.90;100.00
13709;BME280;54933;51.908;7.730;2022-07-19T00:53:36;101312.56;;;23.92;100.00
13709;BME280;54933;51.908;7.730;2022-07-19T00:56:04;101305.25;;;23.92;100.00
13709;BME280;54933;51.908;7.730;2022-07-19T00:58:30;101298.97;;;23.92;100.00
13709;BME280;54933;51.908;7.730;2022-07-19T01:00:56;101302.53;;;23.92;100.00
13709;BME280;54933;51.908;7.730;2022-07-19T01:03:21;101301.69;;;23.92;100.00
13709;BME280;54933;51.908;7.730;2022-07-19T01:05:47;101309.84;;;23.92;100.00
13709;BME280;54933;51.908;7.730;2022-07-19T01:08:13;101303.59;;;23.91;100.00
13709;BME280;54933;51.908;7.730;2022-07-19T01:10:38;101300.66;;;23.93;100.00
13709;BME280;54933;51.908;7.730;2022-07-19T01:13:04;101296.25;;;23.92;100.00
13709;BME280;54933;51.908;7.730;2022-07-19T01:15:29;101299.81;;;23.92;100.00
13709;BME280;54933;51.908;7.730;2022-07-19T01:17:54;101303.59;;;23.91;100.00
13709;BME280;54933;51.908;7.730;2022-07-19T01:20:22;101298.16;;;23.91;100.00
13709;BME280;54933;51.908;7.730;2022-07-19T01:22:47;101299.81;;;23.92;100.00
13709;BME280;54933;51.908;7.730;2022-07-19T01:25:14;101299.81;;;23.92;100.00
13709;BME280;54933;51.908;7.730;2022-07-19T01:27:47;101293.53;;;23.92;100.00
13709;BME280;54933;51.908;7.730;2022-07-19T01:30:17;101296.25;;;23.92;100.00
13709;BME280;54933;51.908;7.730;2022-07-19T01:32:43;101295.22;;;23.93;100.00
13709;BME280;54933;51.908;7.730;2022-07-19T01:35:09;101301.69;;;23.92;100.00
13709;BME280;54933;51.908;7.730;2022-07-19T01:37:35;101303.59;;;23.91;100.00
13709;BME280;54933;51.908;7.730;2022-07-19T01:40:04;101291.66;;;23.92;100.00
13709;BME280;54933;51.908;7.730;2022-07-19T01:42:30;101307.97;;;23.92;100.00
13709;BME280;54933;51.908;7.730;2022-07-19T01:44:56;101310.69;;;23.92;100.00
13709;BME280;54933;51.908;7.730;2022-07-19T01:47:21;101298.97;;;23.92;100.00
13709;BME280;54933;51.908;7.730;2022-07-19T01:49:47;101309.03;;;23.91;100.00
13709;BME280;54933;51.908;7.730;2022-07-19T01:52:12;101304.63;;;23.90;100.00
13709;BME280;54933;51.908;7.730;2022-07-19T01:54:37;101307.13;;;23.92;100.00
13709;BME280;54933;51.908;7.730;2022-07-19T01:57:02;101303.59;;;23.91;100.00
13709;BME280;54933;51.908;7.730;2022-07-19T01:59:28;101298.16;;;23.91;100.00
13709;BME280;54933;51.908;7.730;2022-07-19T02:01:53;101298.16;;;23.91;100.00
13709;BME280;54933;51.908;7.730;2022-07-19T02:04:18;101298.16;;;23.91;100.00
13709;BME280;54933;51.908;7.730;2022-07-19T02:06:44;101302.53;;;23.92;100.00
13709;BME280;54933;51.908;7.730;2022-07-19T02:09:09;101293.53;;;23.92;100.00
13709;BME280;54933;51.908;7.730;2022-07-19T02:11:34;101287.31;;;23.91;100.00
13709;BME280;54933;51.908;7.730;2022-07-19T02:13:59;101292.75;;;23.91;100.00
13709;BME280;54933;51.908;7.730;2022-07-19T02:16:25;101291.91;;;23.91;100.00
13709;BME280;54933;51.908;7.730;2022-07-19T02:18:50;101292.75;;;23.91;100.00
13709;BME280;54933;51.908;7.730;2022-07-19T02:21:17;101292.75;;;23.91;100.00
13709;BME280;54933;51.908;7.730;2022-07-19T02:23:42;101293.53;;;23.92;100.00
13709;BME280;54933;51.908;7.730;2022-07-19T02:26:07;101285.63;;;23.90;100.00
13709;BME280;54933;51.908;7.730;2022-07-19T02:28:33;101296.50;;;23.90;100.00
13709;BME280;54933;51.908;7.730;2022-07-19T02:30:58;101298.16;;;23.91;100.00
13709;BME280;54933;51.908;7.730;2022-07-19T02:33:23;101292.75;;;23.91;100.00
13709;BME280;54933;51.908;7.730;2022-07-19T02:35:49;101294.38;;;23.92;100.00
13709;BME280;54933;51.908;7.730;2022-07-19T02:38:14;101287.31;;;23.91;100.00
13709;BME280;54933;51.908;7.730;2022-07-19T02:40:39;101298.97;;;23.92;100.00
13709;BME280;54933;51.908;7.730;2022-07-19T02:43:05;101297.31;;;23.91;100.00
13709;BME280;54933;51.908;7.730;2022-07-19T02:45:30;101295.44;;;23.91;100.00
13709;BME280;54933;51.908;7.730;2022-07-19T02:47:55;101292.75;;;23.91;100.00
13709;BME280;54933;51.908;7.730;2022-07-19T02:50:21;101298.16;;;23.91;100.00
13709;BME280;54933;51.908;7.730;2022-07-19T02:52:46;101298.16;;;23.91;100.00
13709;BME280;54933;51.908;7.730;2022-07-19T02:55:11;101288.13;;;23.92;100.00
13709;BME280;54933;51.908;7.730;2022-07-19T02:57:36;101291.06;;;23.90;100.00
13709;BME280;54933;51.908;7.730;2022-07-19T03:00:06;101303.59;;;23.91;100.00
13709;BME280;54933;51.908;7.730;2022-07-19T03:02:35;101297.31;;;23.91;100.00
13709;BME280;54933;51.908;7.730;2022-07-19T03:05:01;101299.81;;;23.92;100.00
13709;BME280;54933;51.908;7.730;2022-07-19T03:07:26;101300.03;;;23.91;100.00
13709;BME280;54933;51.908;7.730;2022-07-19T03:09:51;101298.16;;;23.91;100.00
13709;BME280;54933;51.908;7.730;2022-07-19T03:12:16;101303.59;;;23.91;100.00
13709;BME280;54933;51.908;7.730;2022-07-19T03:14:42;101298.16;;;23.91;100.00
13709;BME280;54933;51.908;7.730;2022-07-19T03:17:07;101294.38;;;23.92;100.00
13709;BME280;54933;51.908;7.730;2022-07-19T03:19:32;101292.75;;;23.91;100.00
13709;BME280;54933;51.908;7.730;2022-07-19T03:21:57;101293.53;;;23.92;100.00
13709;BME280;54933;51.908;7.730;2022-07-19T03:24:23;101287.31;;;23.91;100.00
13709;BME280;54933;51.908;7.730;2022-07-19T03:26:48;101298.16;;;23.91;100.00
13709;BME280;54933;51.908;7.730;2022-07-19T03:29:14;101294.38;;;23.92;100.00
13709;BME280;54933;51.908;7.730;2022-07-19T03:31:39;101296.25;;;23.92;100.00
13709;BME280;54933;51.908;7.730;2022-07-19T03:34:04;101297.09;;;23.92;100.00
13709;BME280;54933;51.908;7.730;2022-07-19T03:36:30;101300.88;;;23.91;100.00
13709;BME280;54933;51.908;7.730;2022-07-19T03:38:55;101297.09;;;23.92;100.00
13709;BME280;54933;51.908;7.730;2022-07-19T03:41:21;101288.97;;;23.92;100.00
13709;BME280;54933;51.908;7.730;2022-07-19T03:43:47;101291.91;;;23.91;100.00
13709;BME280;54933;51.908;7.730;2022-07-19T03:46:12;101299.81;;;23.92;100.00
13709;BME280;54933;51.908;7.730;2022-07-19T03:48:37;101291.66;;;23.92;100.00
13709;BME280;54933;51.908;7.730;2022-07-19T03:51:03;101297.09;;;23.92;100.00
13709;BME280;54933;51.908;7.730;2022-07-19T03:53:28;101290.03;;;23.91;100.00
13709;BME280;54933;51.908;7.730;2022-07-19T03:55:53;101289.19;;;23.91;100.00
13709;BME280;54933;51.908;7.730;2022-07-19T03:58:19;101292.75;;;23.91;100.00
13709;BME280;54933;51.908;7.730;2022-07-19T04:00:44;101287.31;;;23.91;100.00
13709;BME280;54933;51.908;7.730;2022-07-19T04:03:10;101293.53;;;23.92;100.00
13709;BME280;54933;51.908;7.730;2022-07-19T04:05:36;101301.69;;;23.92;100.00
13709;BME280;54933;51.908;7.730;2022-07-19T04:08:01;101293.53;;;23.92;100.00
13709;BME280;54933;51.908;7.730;2022-07-19T04:10:26;101304.41;;;23.92;100.00
13709;BME280;54933;51.908;7.730;2022-07-19T04:12:52;101294.38;;;23.92;100.00
13709;BME280;54933;51.908;7.730;2022-07-19T04:15:17;101296.25;;;23.92;100.00
13709;BME280;54933;51.908;7.730;2022-07-19T04:17:42;101299.81;;;23.92;100.00
13709;BME280;54933;51.908;7.730;2022-07-19T04:20:08;101301.91;;;23.90;100.00
13709;BME280;54933;51.908;7.730;2022-07-19T04:22:33;101297.31;;;23.91;100.00
13709;BME280;54933;51.908;7.730;2022-07-19T04:24:59;101300.88;;;23.91;100.00
13709;BME280;54933;51.908;7.730;2022-07-19T04:27:24;101300.88;;;23.91;100.00
13709;BME280;54933;51.908;7.730;2022-07-19T04:29:49;101302.75;;;23.91;100.00
13709;BME280;54933;51.908;7.730;2022-07-19T04:32:15;101303.59;;;23.91;100.00
13709;BME280;54933;51.908;7.730;2022-07-19T04:34:40;101299.19;;;23.90;100.00
13709;BME280;54933;51.908;7.730;2022-07-19T04:37:05;101300.88;;;23.91;100.00
13709;BME280;54933;51.908;7.730;2022-07-19T04:39:31;101301.91;;;23.90;100.00
13709;BME280;54933;51.908;7.730;2022-07-19T04:41:56;101303.59;;;23.91;100.00
13709;BME280;54933;51.908;7.730;2022-07-19T04:44:21;101309.03;;;23.91;100.00
13709;BME280;54933;51.908;7.730;2022-07-19T04:46:46;101312.56;;;23.92;100.00
13709;BME280;54933;51.908;7.730;2022-07-19T04:49:11;101310.06;;;23.90;100.00
13709;BME280;54933;51.908;7.730;2022-07-19T04:51:37;101309.03;;;23.91;100.00
13709;BME280;54933;51.908;7.730;2022-07-19T04:54:02;101311.75;;;23.91;100.00
13709;BME280;54933;51.908;7.730;2022-07-19T04:56:27;101309.03;;;23.91;100.00
13709;BME280;54933;51.908;7.730;2022-07-19T04:58:53;101302.75;;;23.91;100.00
13709;BME280;54933;51.908;7.730;2022-07-19T05:01:18;101304.63;;;23.90;100.00
13709;BME280;54933;51.908;7.730;2022-07-19T05:03:43;101308.19;;;23.91;100.00
13709;BME280;54933;51.908;7.730;2022-07-19T05:06:08;101303.59;;;23.91;100.00
13709;BME280;54933;51.908;7.730;2022-07-19T05:08:34;101309.84;;;23.92;100.00
13709;BME280;54933;51.908;7.730;2022-07-19T05:10:59;101304.41;;;23.92;100.00
13709;BME280;54933;51.908;7.730;2022-07-19T05:13:24;101306.31;;;23.91;100.00
13709;BME280;54933;51.908;7.730;2022-07-19T05:15:49;101303.59;;;23.91;100.00
13709;BME280;54933;51.908;7.730;2022-07-19T05:18:15;101298.97;;;23.92;100.00
13709;BME280;54933;51.908;7.730;2022-07-19T05:20:40;101299.81;;;23.92;100.00
13709;BME280;54933;51.908;7.730;2022-07-19T05:23:05;101298.97;;;23.92;100.00
13709;BME280;54933;51.908;7.730;2022-07-19T05:25:32;101299.81;;;23.92;100.00
13709;BME280;54933;51.908;7.730;2022-07-19T05:27:57;101305.25;;;23.92;100.00
13709;BME280;54933;51.908;7.730;2022-07-19T05:30:23;101296.25;;;23.92;100.00
13709;BME280;54933;51.908;7.730;2022-07-19T05:32:48;101296.25;;;23.92;100.00
13709;BME280;54933;51.908;7.730;2022-07-19T05:35:14;101298.97;;;23.92;100.00
13709;BME280;54933;51.908;7.730;2022-07-19T05:37:39;101288.13;;;23.92;100.00
13709;BME280;54933;51.908;7.730;2022-07-19T05:40:05;101296.25;;;23.92;100.00
13709;BME280;54933;51.908;7.730;2022-07-19T05:42:30;101291.66;;;23.92;100.00
13709;BME280;54933;51.908;7.730;2022-07-19T05:44:56;101288.97;;;23.92;100.00
13709;BME280;54933;51.908;7.730;2022-07-19T05:47:21;101293.53;;;23.92;100.00
13709;BME280;54933;51.908;7.730;2022-07-19T05:49:46;101288.13;;;23.92;100.00
13709;BME280;54933;51.908;7.730;2022-07-19T05:52:11;101289.81;;;23.93;100.00
13709;BME280;54933;51.908;7.730;2022-07-19T05:54:37;101291.66;;;23.92;100.00
13709;BME280;54933;51.908;7.730;2022-07-19T05:57:02;101289.81;;;23.93;100.00
13709;BME280;54933;51.908;7.730;2022-07-19T05:59:27;101294.38;;;23.92;100.00
13709;BME280;54933;51.908;7.730;2022-07-19T06:01:53;101293.53;;;23.92;100.00
13709;BME280;54933;51.908;7.730;2022-07-19T06:04:19;101290.84;;;23.92;100.00
13709;BME280;54933;51.908;7.730;2022-07-19T06:06:44;101295.22;;;23.93;100.00
13709;BME280;54933;51.908;7.730;2022-07-19T06:09:09;101294.38;;;23.92;100.00
13709;BME280;54933;51.908;7.730;2022-07-19T06:11:37;101290.03;;;23.91;100.00
13709;BME280;54933;51.908;7.730;2022-07-19T06:14:03;101290.84;;;23.92;100.00
13709;BME280;54933;51.908;7.730;2022-07-19T06:16:30;101288.13;;;23.92;100.00
13709;BME280;54933;51.908;7.730;2022-07-19T06:18:55;101286.25;;;23.92;100.00
13709;BME280;54933;51.908;7.730;2022-07-19T06:21:21;101282.69;;;23.92;100.00
13709;BME280;54933;51.908;7.730;2022-07-19T06:23:47;101282.69;;;23.92;100.00
13709;BME280;54933;51.908;7.730;2022-07-19T06:26:13;101292.75;;;23.91;100.00
13709;BME280;54933;51.908;7.730;2022-07-19T06:28:39;101288.13;;;23.92;100.00
13709;BME280;54933;51.908;7.730;2022-07-19T06:31:07;101298.16;;;23.91;100.00
13709;BME280;54933;51.908;7.730;2022-07-19T06:33:32;101296.03;;;23.93;100.00
13709;BME280;54933;51.908;7.730;2022-07-19T06:35:58;101287.31;;;23.91;100.00
13709;BME280;54933;51.908;7.730;2022-07-19T06:38:23;101294.38;;;23.92;100.00
13709;BME280;54933;51.908;7.730;2022-07-19T06:40:48;101294.38;;;23.92;100.00
13709;BME280;54933;51.908;7.730;2022-07-19T06:43:13;101295.22;;;23.93;100.00
13709;BME280;54933;51.908;7.730;2022-07-19T06:45:39;101294.38;;;23.92;100.00
13709;BME280;54933;51.908;7.730;2022-07-19T06:48:05;101281.88;;;23.91;100.00
13709;BME280;54933;51.908;7.730;2022-07-19T06:50:30;101282.69;;;23.92;100.00
13709;BME280;54933;51.908;7.730;2022-07-19T06:52:56;101287.31;;;23.91;100.00
13709;BME280;54933;51.908;7.730;2022-07-19T06:55:21;101281.88;;;23.91;100.00
13709;BME280;54933;51.908;7.730;2022-07-19T06:57:47;101282.69;;;23.92;100.00
13709;BME280;54933;51.908;7.730;2022-07-19T07:00:13;101288.97;;;23.92;100.00
13709;BME280;54933;51.908;7.730;2022-07-19T07:02:40;101288.13;;;23.92;100.00
13709;BME280;54933;51.908;7.730;2022-07-19T07:05:06;101291.66;;;23.92;100.00
13709;BME280;54933;51.908;7.730;2022-07-19T07:07:33;101286.25;;;23.92;100.00
13709;BME280;54933;51.908;7.730;2022-07-19T07:09:58;101283.53;;;23.92;100.00
13709;BME280;54933;51.908;7.730;2022-07-19T07:12:25;101280.59;;;23.94;100.00
13709;BME280;54933;51.908;7.730;2022-07-19T07:14:50;101285.19;;;23.93;100.00
13709;BME280;54933;51.908;7.730;2022-07-19T07:17:16;101279.75;;;23.93;100.00
13709;BME280;54933;51.908;7.730;2022-07-19T07:19:41;101279.75;;;23.93;100.00
13709;BME280;54933;51.908;7.730;2022-07-19T07:22:06;101284.38;;;23.93;100.00
13709;BME280;54933;51.908;7.730;2022-07-19T07:24:31;101274.31;;;23.93;100.00
13709;BME280;54933;51.908;7.730;2022-07-19T07:26:57;101268.88;;;23.93;100.00
13709;BME280;54933;51.908;7.730;2022-07-19T07:29:22;101272.66;;;23.92;100.00
13709;BME280;54933;51.908;7.730;2022-07-19T07:31:47;101275.16;;;23.94;100.00
13709;BME280;54933;51.908;7.730;2022-07-19T07:34:13;101272.66;;;23.92;100.00
13709;BME280;54933;51.908;7.730;2022-07-19T07:36:38;101268.88;;;23.93;100.00
13709;BME280;54933;51.908;7.730;2022-07-19T07:39:04;101266.19;;;23.93;100.00
13709;BME280;54933;51.908;7.730;2022-07-19T07:41:29;101263.47;;;23.93;100.00
13709;BME280;54933;51.908;7.730;2022-07-19T07:43:54;101274.31;;;23.93;100.00
13709;BME280;54933;51.908;7.730;2022-07-19T07:46:20;101275.16;;;23.94;100.00
13709;BME280;54933;51.908;7.730;2022-07-19T07:48:45;101269.72;;;23.94;100.00
13709;BME280;54933;51.908;7.730;2022-07-19T07:51:11;101274.13;;;23.95;100.00
13709;BME280;54933;51.908;7.730;2022-07-19T07:53:36;101276.00;;;23.94;100.00
13709;BME280;54933;51.908;7.730;2022-07-19T07:56:01;101267.84;;;23.94;100.00
13709;BME280;54933;51.908;7.730;2022-07-19T07:58:26;101275.16;;;23.94;100.00
13709;BME280;54933;51.908;7.730;2022-07-19T08:00:52;101276.00;;;23.94;100.00
13709;BME280;54933;51.908;7.730;2022-07-19T08:03:17;101265.13;;;23.94;100.00
13709;BME280;54933;51.908;7.730;2022-07-19T08:05:43;101270.56;;;23.94;100.00
13709;BME280;54933;51.908;7.730;2022-07-19T08:08:13;101267.84;;;23.94;100.00
13709;BME280;54933;51.908;7.730;2022-07-19T08:10:38;101267.84;;;23.94;100.00
13709;BME280;54933;51.908;7.730;2022-07-19T08:13:03;101270.56;;;23.94;100.00
13709;BME280;54933;51.908;7.730;2022-07-19T08:15:29;101271.41;;;23.95;100.00
13709;BME280;54933;51.908;7.730;2022-07-19T08:17:54;101265.13;;;23.94;100.00
13709;BME280;54933;51.908;7.730;2022-07-19T08:20:19;101260.56;;;23.95;100.00
13709;BME280;54933;51.908;7.730;2022-07-19T08:22:45;101265.97;;;23.95;100.00
13709;BME280;54933;51.908;7.730;2022-07-19T08:25:10;101263.25;;;23.95;100.00
13709;BME280;54933;51.908;7.730;2022-07-19T08:27:40;101264.06;;;23.95;100.00
13709;BME280;54933;51.908;7.730;2022-07-19T08:30:05;101262.19;;;23.96;100.00
13709;BME280;54933;51.908;7.730;2022-07-19T08:32:31;101262.44;;;23.94;100.00
13709;BME280;54933;51.908;7.730;2022-07-19T08:34:56;101262.19;;;23.96;100.00
13709;BME280;54933;51.908;7.730;2022-07-19T08:37:21;101266.78;;;23.95;100.00
13709;BME280;54933;51.908;7.730;2022-07-19T08:39:46;101266.78;;;23.95;100.00
13709;BME280;54933;51.908;7.730;2022-07-19T08:42:12;101264.06;;;23.95;100.00
13709;BME280;54933;51.908;7.730;2022-07-19T08:44:37;101261.34;;;23.95;100.00
13709;BME280;54933;51.908;7.730;2022-07-19T08:47:05;101250.50;;;23.95;100.00
13709;BME280;54933;51.908;7.730;2022-07-19T08:49:32;101259.47;;;23.96;100.00
13709;BME280;54933;51.908;7.730;2022-07-19T08:51:57;101262.19;;;23.96;100.00
13709;BME280;54933;51.908;7.730;2022-07-19T08:54:23;101251.34;;;23.96;100.00
13709;BME280;54933;51.908;7.730;2022-07-19T08:56:48;101251.34;;;23.96;100.00
13709;BME280;54933;51.908;7.730;2022-07-19T08:59:33;101251.34;;;23.96;100.00
13709;BME280;54933;51.908;7.730;2022-07-19T09:01:58;101251.34;;;23.96;100.00
13709;BME280;54933;51.908;7.730;2022-07-19T09:04:23;101256.78;;;23.96;100.00
13709;BME280;54933;51.908;7.730;2022-07-19T09:06:56;101253.00;;;23.97;100.00
13709;BME280;54933;51.908;7.730;2022-07-19T09:09:30;101254.06;;;23.96;100.00
13709;BME280;54933;51.908;7.730;2022-07-19T09:11:57;101245.91;;;23.96;100.00
13709;BME280;54933;51.908;7.730;2022-07-19T09:14:28;101246.75;;;23.96;100.00
13709;BME280;54933;51.908;7.730;2022-07-19T09:19:38;101237.56;;;23.97;100.00
13709;BME280;54933;51.908;7.730;2022-07-19T09:22:06;101243.00;;;23.97;100.00
13709;BME280;54933;51.908;7.730;2022-07-19T09:24:38;101243.00;;;23.97;100.00
13709;BME280;54933;51.908;7.730;2022-07-19T09:27:08;101236.69;;;23.97;100.00
13709;BME280;54933;51.908;7.730;2022-07-19T09:29:36;101243.00;;;23.97;100.00
13709;BME280;54933;51.908;7.730;2022-07-19T09:32:21;101235.88;;;23.96;100.00
13709;BME280;54933;51.908;7.730;2022-07-19T09:34:59;101226.72;;;23.97;100.00
13709;BME280;54933;51.908;7.730;2022-07-19T09:37:28;101231.06;;;23.98;100.00
13709;BME280;54933;51.908;7.730;2022-07-19T09:39:59;101231.06;;;23.98;100.00
13709;BME280;54933;51.908;7.730;2022-07-19T09:42:35;101229.44;;;23.97;100.00
13709;BME280;54933;51.908;7.730;2022-07-19T09:45:10;101229.44;;;23.97;100.00
13709;BME280;54933;51.908;7.730;2022-07-19T09:47:41;101217.50;;;23.98;100.00
13709;BME280;54933;51.908;7.730;2022-07-19T09:50:10;101216.69;;;23.98;100.00
13709;BME280;54933;51.908;7.730;2022-07-19T09:52:36;101222.94;;;23.98;100.00
13709;BME280;54933;51.908;7.730;2022-07-19T09:55:04;101220.22;;;23.98;100.00
13709;BME280;54933;51.908;7.730;2022-07-19T09:57:35;101217.50;;;23.98;100.00
13709;BME280;54933;51.908;7.730;2022-07-19T10:00:04;101211.03;;;23.99;100.00
13709;BME280;54933;51.908;7.730;2022-07-19T10:02:33;101212.91;;;23.99;100.00
13709;BME280;54933;51.908;7.730;2022-07-19T10:04:59;101211.03;;;23.99;100.00
13709;BME280;54933;51.908;7.730;2022-07-19T10:07:25;101211.03;;;23.99;100.00
13709;BME280;54933;51.908;7.730;2022-07-19T10:09:50;101209.13;;;24.00;100.00
13709;BME280;54933;51.908;7.730;2022-07-19T10:12:16;101211.03;;;23.99;100.00
13709;BME280;54933;51.908;7.730;2022-07-19T10:14:42;101203.69;;;24.00;100.00
13709;BME280;54933;51.908;7.730;2022-07-19T10:17:26;101205.59;;;23.99;100.00
13709;BME280;54933;51.908;7.730;2022-07-19T10:19:55;101204.53;;;24.00;100.00
13709;BME280;54933;51.908;7.730;2022-07-19T10:22:22;101203.69;;;24.00;100.00
13709;BME280;54933;51.908;7.730;2022-07-19T10:24:57;101200.19;;;23.99;100.00
13709;BME280;54933;51.908;7.730;2022-07-19T10:29:48;101199.09;;;24.00;100.00
13709;BME280;54933;51.908;7.730;2022-07-19T10:32:14;101192.84;;;24.00;100.00
13709;BME280;54933;51.908;7.730;2022-07-19T10:34:40;101192.03;;;23.99;100.00
13709;BME280;54933;51.908;7.730;2022-07-19T10:37:06;101199.09;;;24.00;100.00
13709;BME280;54933;51.908;7.730;2022-07-19T10:39:33;101186.59;;;23.99;100.00
13709;BME280;54933;51.908;7.730;2022-07-19T10:42:07;101187.41;;;24.00;100.00
13709;BME280;54933;51.908;7.730;2022-07-19T10:44:35;101183.66;;;24.01;100.00
13709;BME280;54933;51.908;7.730;2022-07-19T10:47:01;101181.16;;;23.99;100.00
13709;BME280;54933;51.908;7.730;2022-07-19T10:49:42;101185.53;;;24.00;100.00
13709;BME280;54933;51.908;7.730;2022-07-19T10:57:43;101171.97;;;24.00;100.00
13709;BME280;54933;51.908;7.730;2022-07-19T11:00:29;101171.13;;;24.00;100.00
13709;BME280;54933;51.908;7.730;2022-07-19T11:06:01;101158.38;;;24.00;100.00
13709;BME280;54933;51.908;7.730;2022-07-19T11:08:37;101161.94;;;24.01;100.00
13709;BME280;54933;51.908;7.730;2022-07-19T11:11:10;101161.09;;;24.00;100.00
13709;BME280;54933;51.908;7.730;2022-07-19T11:13:38;101161.09;;;24.00;100.00
13709;BME280;54933;51.908;7.730;2022-07-19T11:16:04;101150.25;;;24.00;100.00
13709;BME280;54933;51.908;7.730;2022-07-19T11:18:31;101150.25;;;24.00;100.00
13709;BME280;54933;51.908;7.730;2022-07-19T11:21:01;101147.28;;;24.02;100.00
13709;BME280;54933;51.908;7.730;2022-07-19T11:23:35;101147.28;;;24.02;100.00
13709;BME280;54933;51.908;7.730;2022-07-19T11:26:11;101130.19;;;24.01;100.00
13709;BME280;54933;51.908;7.730;2022-07-19T11:28:38;101130.19;;;24.01;100.00
13709;BME280;54933;51.908;7.730;2022-07-19T11:31:19;101125.56;;;24.02;100.00
13709;BME280;54933;51.908;7.730;2022-07-19T11:33:46;101131.00;;;24.02;100.00
13709;BME280;54933;51.908;7.730;2022-07-19T11:36:13;101126.41;;;24.02;100.00
13709;BME280;54933;51.908;7.730;2022-07-19T11:38:46;101124.78;;;24.01;100.00
13709;BME280;54933;51.908;7.730;2022-07-19T11:41:15;101123.69;;;24.02;100.00
13709;BME280;54933;51.908;7.730;2022-07-19T11:43:43;101117.44;;;24.02;100.00
13709;BME280;54933;51.908;7.730;2022-07-19T11:46:09;101117.19;;;24.03;100.00
13709;BME280;54933;51.908;7.730;2022-07-19T11:48:34;101111.78;;;24.03;100.00
13709;BME280;54933;51.908;7.730;2022-07-19T11:51:08;101113.69;;;24.03;100.00
13709;BME280;54933;51.908;7.730;2022-07-19T11:53:38;101111.78;;;24.03;100.00
13709;BME280;54933;51.908;7.730;2022-07-19T11:56:15;101112.59;;;24.04;100.00
13709;BME280;54933;51.908;7.730;2022-07-19T11:58:42;101108.25;;;24.03;100.00
13709;BME280;54933;51.908;7.730;2022-07-19T12:01:07;101095.47;;;24.03;100.00
13709;BME280;54933;51.908;7.730;2022-07-19T12:03:33;101105.31;;;24.04;100.00
13709;BME280;54933;51.908;7.730;2022-07-19T12:06:08;101099.88;;;24.04;100.00
13709;BME280;54933;51.908;7.730;2022-07-19T12:08:42;101090.91;;;24.04;100.00
13709;BME280;54933;51.908;7.730;2022-07-19T12:13:40;101094.44;;;24.04;100.00
13709;BME280;54933;51.908;7.730;2022-07-19T12:16:11;101105.31;;;24.04;100.00
13709;BME280;54933;51.908;7.730;2022-07-19T12:21:20;101101.53;;;24.05;100.00
13709;BME280;54933;51.908;7.730;2022-07-19T12:26:42;101086.31;;;24.04;100.00
13709;BME280;54933;51.908;7.730;2022-07-19T12:29:20;101086.31;;;24.04;100.00
13709;BME280;54933;51.908;7.730;2022-07-19T12:31:46;101075.44;;;24.04;100.00
13709;BME280;54933;51.908;7.730;2022-07-19T12:34:13;101075.44;;;24.04;100.00
13709;BME280;54933;51.908;7.730;2022-07-19T12:36:38;101075.44;;;24.04;100.00
13709;BME280;54933;51.908;7.730;2022-07-19T12:39:04;101077.09;;;24.05;100.00
13709;BME280;54933;51.908;7.730;2022-07-19T12:41:29;101071.66;;;24.05;100.00
13709;BME280;54933;51.908;7.730;2022-07-19T12:43:54;101066.22;;;24.05;100.00
13709;BME280;54933;51.908;7.730;2022-07-19T12:46:20;101063.50;;;24.05;100.00
13709;BME280;54933;51.908;7.730;2022-07-19T12:48:45;101058.09;;;24.05;100.00
13709;BME280;54933;51.908;7.730;2022-07-19T12:51:10;101055.38;;;24.05;100.00
13709;BME280;54933;51.908;7.730;2022-07-19T12:53:36;101053.50;;;24.06;100.00
13709;BME280;54933;51.908;7.730;2022-07-19T12:56:01;101055.38;;;24.05;100.00
13709;BME280;54933;51.908;7.730;2022-07-19T12:58:26;101057.00;;;24.06;100.00